sensor_id;sensor_type;location;lat;lon;timestamp;P1;durP1;ratioP1;P2;durP2;ratioP2
65275;SDS011;51875;49.994;14.052;2023-06-24T00:00:43;1.98;;;0.90;;
65275;SDS011;51875;49.994;14.052;2023-06-24T00:02:19;1.35;;;1.25;;
65275;SDS011;51875;49.994;14.052;2023-06-24T00:03:35;1.10;;;1.00;;
65275;SDS011;51875;49.994;14.052;2023-06-24T00:04:52;1.50;;;1.40;;
65275;SDS011;51875;49.994;14.052;2023-06-24T00:06:08;1.33;;;1.23;;
65275;SDS011;51875;49.994;14.052;2023-06-24T00:07:24;1.58;;;1.40;;
65275;SDS011;51875;49.994;14.052;2023-06-24T00:08:41;1.30;;;1.20;;
65275;SDS011;51875;49.994;14.052;2023-06-24T00:09:57;1.58;;;1.45;;
65275;SDS011;51875;49.994;14.052;2023-06-24T00:11:13;1.52;;;1.42;;
65275;SDS011;51875;49.994;14.052;2023-06-24T00:12:29;1.60;;;1.50;;
65275;SDS011;51875;49.994;14.052;2023-06-24T00:13:44;1.67;;;1.50;;
65275;SDS011;51875;49.994;14.052;2023-06-24T00:15:00;3.50;;;1.70;;
65275;SDS011;51875;49.994;14.052;2023-06-24T00:16:15;1.55;;;1.35;;
65275;SDS011;51875;49.994;14.052;2023-06-24T00:17:31;2.25;;;1.55;;
65275;SDS011;51875;49.994;14.052;2023-06-24T00:18:47;2.85;;;1.55;;
65275;SDS011;51875;49.994;14.052;2023-06-24T00:20:02;1.60;;;1.50;;
65275;SDS011;51875;49.994;14.052;2023-06-24T00:21:20;2.92;;;1.77;;
65275;SDS011;51875;49.994;14.052;2023-06-24T00:22:36;1.83;;;1.73;;
65275;SDS011;51875;49.994;14.052;2023-06-24T00:23:59;1.92;;;1.73;;
65275;SDS011;51875;49.994;14.052;2023-06-24T00:25:19;2.22;;;2.03;;
65275;SDS011;51875;49.994;14.052;2023-06-24T00:26:34;1.88;;;1.65;;
65275;SDS011;51875;49.994;14.052;2023-06-24T00:27:51;2.30;;;2.10;;
65275;SDS011;51875;49.994;14.052;2023-06-24T00:29:07;2.08;;;1.88;;
65275;SDS011;51875;49.994;14.052;2023-06-24T00:30:23;2.20;;;1.90;;
65275;SDS011;51875;49.994;14.052;2023-06-24T00:31:38;2.15;;;1.95;;
65275;SDS011;51875;49.994;14.052;2023-06-24T00:32:54;1.92;;;1.77;;
65275;SDS011;51875;49.994;14.052;2023-06-24T00:34:10;3.33;;;1.88;;
65275;SDS011;51875;49.994;14.052;2023-06-24T00:35:25;2.58;;;2.00;;
65275;SDS011;51875;49.994;14.052;2023-06-24T00:36:40;2.42;;;2.20;;
65275;SDS011;51875;49.994;14.052;2023-06-24T00:37:56;2.38;;;2.10;;
65275;SDS011;51875;49.994;14.052;2023-06-24T00:39:13;2.22;;;2.03;;
65275;SDS011;51875;49.994;14.052;2023-06-24T00:40:28;2.28;;;2.05;;
65275;SDS011;51875;49.994;14.052;2023-06-24T00:41:44;3.55;;;2.10;;
65275;SDS011;51875;49.994;14.052;2023-06-24T00:43:00;2.85;;;2.35;;
65275;SDS011;51875;49.994;14.052;2023-06-24T00:44:16;3.33;;;2.28;;
65275;SDS011;51875;49.994;14.052;2023-06-24T00:45:32;5.10;;;2.67;;
65275;SDS011;51875;49.994;14.052;2023-06-24T00:46:48;2.50;;;2.30;;
65275;SDS011;51875;49.994;14.052;2023-06-24T00:48:04;2.72;;;2.53;;
65275;SDS011;51875;49.994;14.052;2023-06-24T00:49:21;2.70;;;2.30;;
65275;SDS011;51875;49.994;14.052;2023-06-24T00:50:36;3.65;;;2.67;;
65275;SDS011;51875;49.994;14.052;2023-06-24T00:51:52;4.28;;;2.40;;
65275;SDS011;51875;49.994;14.052;2023-06-24T00:53:07;2.70;;;2.40;;
65275;SDS011;51875;49.994;14.052;2023-06-24T00:54:23;2.65;;;2.33;;
65275;SDS011;51875;49.994;14.052;2023-06-24T00:55:45;3.35;;;2.28;;
65275;SDS011;51875;49.994;14.052;2023-06-24T00:57:02;2.53;;;2.20;;
65275;SDS011;51875;49.994;14.052;2023-06-24T00:58:17;3.20;;;2.05;;
65275;SDS011;51875;49.994;14.052;2023-06-24T00:59:36;4.30;;;2.10;;
65275;SDS011;51875;49.994;14.052;2023-06-24T01:00:53;2.30;;;2.10;;
65275;SDS011;51875;49.994;14.052;2023-06-24T01:02:12;2.95;;;2.30;;
65275;SDS011;51875;49.994;14.052;2023-06-24T01:03:27;2.78;;;2.30;;
65275;SDS011;51875;49.994;14.052;2023-06-24T01:04:44;2.55;;;2.03;;
65275;SDS011;51875;49.994;14.052;2023-06-24T01:06:02;4.13;;;1.80;;
65275;SDS011;51875;49.994;14.052;2023-06-24T01:07:18;2.53;;;2.05;;
65275;SDS011;51875;49.994;14.052;2023-06-24T01:08:34;3.22;;;2.15;;
65275;SDS011;51875;49.994;14.052;2023-06-24T01:09:49;3.15;;;2.47;;
65275;SDS011;51875;49.994;14.052;2023-06-24T01:11:05;3.35;;;2.10;;
65275;SDS011;51875;49.994;14.052;2023-06-24T01:12:21;2.25;;;1.98;;
65275;SDS011;51875;49.994;14.052;2023-06-24T01:13:36;2.33;;;2.05;;
65275;SDS011;51875;49.994;14.052;2023-06-24T01:14:52;2.92;;;2.30;;
65275;SDS011;51875;49.994;14.052;2023-06-24T01:17:48;3.05;;;2.13;;
65275;SDS011;51875;49.994;14.052;2023-06-24T01:21:03;2.40;;;2.03;;
65275;SDS011;51875;49.994;14.052;2023-06-24T01:25:52;2.97;;;2.05;;
65275;SDS011;51875;49.994;14.052;2023-06-24T01:32:56;3.75;;;2.20;;
65275;SDS011;51875;49.994;14.052;2023-06-24T01:36:08;2.42;;;2.03;;
65275;SDS011;51875;49.994;14.052;2023-06-24T01:37:29;6.72;;;2.63;;
65275;SDS011;51875;49.994;14.052;2023-06-24T01:39:03;4.70;;;2.05;;
65275;SDS011;51875;49.994;14.052;2023-06-24T01:41:53;2.88;;;2.33;;
65275;SDS011;51875;49.994;14.052;2023-06-24T01:43:15;2.83;;;2.40;;
65275;SDS011;51875;49.994;14.052;2023-06-24T01:44:32;3.53;;;2.25;;
65275;SDS011;51875;49.994;14.052;2023-06-24T01:45:49;2.88;;;2.42;;
65275;SDS011;51875;49.994;14.052;2023-06-24T01:47:07;3.78;;;2.42;;
65275;SDS011;51875;49.994;14.052;2023-06-24T01:48:27;3.03;;;2.38;;
65275;SDS011;51875;49.994;14.052;2023-06-24T01:49:44;3.58;;;2.30;;
65275;SDS011;51875;49.994;14.052;2023-06-24T01:51:07;2.50;;;2.20;;
65275;SDS011;51875;49.994;14.052;2023-06-24T01:52:28;3.30;;;2.33;;
65275;SDS011;51875;49.994;14.052;2023-06-24T01:53:49;2.40;;;2.00;;
65275;SDS011;51875;49.994;14.052;2023-06-24T01:55:09;3.53;;;2.30;;
65275;SDS011;51875;49.994;14.052;2023-06-24T01:56:30;6.30;;;2.55;;
65275;SDS011;51875;49.994;14.052;2023-06-24T01:57:49;3.20;;;2.38;;
65275;SDS011;51875;49.994;14.052;2023-06-24T01:59:07;3.45;;;2.33;;
65275;SDS011;51875;49.994;14.052;2023-06-24T02:00:23;2.88;;;2.30;;
65275;SDS011;51875;49.994;14.052;2023-06-24T02:01:40;3.50;;;2.53;;
65275;SDS011;51875;49.994;14.052;2023-06-24T02:02:55;2.70;;;2.08;;
65275;SDS011;51875;49.994;14.052;2023-06-24T02:04:12;3.63;;;2.50;;
65275;SDS011;51875;49.994;14.052;2023-06-24T02:05:30;3.05;;;2.42;;
65275;SDS011;51875;49.994;14.052;2023-06-24T02:06:47;3.45;;;2.10;;
65275;SDS011;51875;49.994;14.052;2023-06-24T02:08:03;3.28;;;2.30;;
65275;SDS011;51875;49.994;14.052;2023-06-24T02:09:20;2.97;;;2.38;;
65275;SDS011;51875;49.994;14.052;2023-06-24T02:10:37;3.63;;;2.30;;
65275;SDS011;51875;49.994;14.052;2023-06-24T02:11:54;3.67;;;2.30;;
65275;SDS011;51875;49.994;14.052;2023-06-24T02:13:12;3.40;;;2.25;;
65275;SDS011;51875;49.994;14.052;2023-06-24T02:14:29;2.90;;;2.38;;
65275;SDS011;51875;49.994;14.052;2023-06-24T02:15:45;3.70;;;2.47;;
65275;SDS011;51875;49.994;14.052;2023-06-24T02:17:05;3.63;;;2.30;;
65275;SDS011;51875;49.994;14.052;2023-06-24T02:18:23;2.78;;;2.20;;
65275;SDS011;51875;49.994;14.052;2023-06-24T02:19:40;3.42;;;2.20;;
65275;SDS011;51875;49.994;14.052;2023-06-24T02:20:57;3.90;;;2.50;;
65275;SDS011;51875;49.994;14.052;2023-06-24T02:22:14;2.97;;;2.35;;
65275;SDS011;51875;49.994;14.052;2023-06-24T02:23:32;4.30;;;2.30;;
65275;SDS011;51875;49.994;14.052;2023-06-24T02:24:50;3.67;;;2.50;;
65275;SDS011;51875;49.994;14.052;2023-06-24T02:26:06;6.03;;;2.67;;
65275;SDS011;51875;49.994;14.052;2023-06-24T02:27:22;3.00;;;2.65;;
65275;SDS011;51875;49.994;14.052;2023-06-24T02:28:39;3.40;;;2.78;;
65275;SDS011;51875;49.994;14.052;2023-06-24T02:29:56;4.03;;;2.50;;
65275;SDS011;51875;49.994;14.052;2023-06-24T02:31:13;3.92;;;2.58;;
65275;SDS011;51875;49.994;14.052;2023-06-24T02:32:30;2.92;;;2.42;;
65275;SDS011;51875;49.994;14.052;2023-06-24T02:33:45;3.35;;;2.47;;
65275;SDS011;51875;49.994;14.052;2023-06-24T02:35:01;4.13;;;2.70;;
65275;SDS011;51875;49.994;14.052;2023-06-24T02:36:17;3.28;;;2.50;;
65275;SDS011;51875;49.994;14.052;2023-06-24T02:37:33;4.45;;;3.10;;
65275;SDS011;51875;49.994;14.052;2023-06-24T02:38:49;3.83;;;2.90;;
65275;SDS011;51875;49.994;14.052;2023-06-24T02:40:04;5.18;;;2.65;;
65275;SDS011;51875;49.994;14.052;2023-06-24T02:41:23;3.22;;;2.55;;
65275;SDS011;51875;49.994;14.052;2023-06-24T02:42:38;4.13;;;2.90;;
65275;SDS011;51875;49.994;14.052;2023-06-24T02:43:53;3.38;;;2.80;;
65275;SDS011;51875;49.994;14.052;2023-06-24T02:45:09;3.83;;;2.90;;
65275;SDS011;51875;49.994;14.052;2023-06-24T02:46:25;4.80;;;2.80;;
65275;SDS011;51875;49.994;14.052;2023-06-24T02:47:44;7.55;;;3.58;;
65275;SDS011;51875;49.994;14.052;2023-06-24T02:49:02;4.78;;;2.92;;
65275;SDS011;51875;49.994;14.052;2023-06-24T02:50:18;3.70;;;2.90;;
65275;SDS011;51875;49.994;14.052;2023-06-24T02:51:35;4.80;;;2.80;;
65275;SDS011;51875;49.994;14.052;2023-06-24T02:52:52;3.22;;;2.55;;
65275;SDS011;51875;49.994;14.052;2023-06-24T02:54:08;3.85;;;2.70;;
65275;SDS011;51875;49.994;14.052;2023-06-24T02:55:25;3.65;;;2.60;;
65275;SDS011;51875;49.994;14.052;2023-06-24T02:56:42;3.95;;;2.95;;
65275;SDS011;51875;49.994;14.052;2023-06-24T02:57:59;5.50;;;3.00;;
65275;SDS011;51875;49.994;14.052;2023-06-24T02:59:16;3.65;;;2.60;;
65275;SDS011;51875;49.994;14.052;2023-06-24T03:00:31;4.28;;;2.38;;
65275;SDS011;51875;49.994;14.052;2023-06-24T03:01:49;3.97;;;2.88;;
65275;SDS011;51875;49.994;14.052;2023-06-24T03:03:06;3.97;;;2.63;;
65275;SDS011;51875;49.994;14.052;2023-06-24T03:04:22;3.53;;;2.60;;
65275;SDS011;51875;49.994;14.052;2023-06-24T03:05:37;4.03;;;2.75;;
65275;SDS011;51875;49.994;14.052;2023-06-24T03:06:53;5.95;;;2.50;;
65275;SDS011;51875;49.994;14.052;2023-06-24T03:08:09;4.53;;;2.70;;
65275;SDS011;51875;49.994;14.052;2023-06-24T03:09:31;6.75;;;2.83;;
65275;SDS011;51875;49.994;14.052;2023-06-24T03:10:49;5.32;;;3.20;;
65275;SDS011;51875;49.994;14.052;2023-06-24T03:12:05;4.25;;;2.40;;
65275;SDS011;51875;49.994;14.052;2023-06-24T03:13:21;4.43;;;2.88;;
65275;SDS011;51875;49.994;14.052;2023-06-24T03:14:38;4.18;;;2.78;;
65275;SDS011;51875;49.994;14.052;2023-06-24T03:15:53;6.00;;;3.15;;
65275;SDS011;51875;49.994;14.052;2023-06-24T03:17:09;4.05;;;2.65;;
65275;SDS011;51875;49.994;14.052;2023-06-24T03:18:26;3.17;;;2.53;;
65275;SDS011;51875;49.994;14.052;2023-06-24T03:19:42;3.47;;;2.58;;
65275;SDS011;51875;49.994;14.052;2023-06-24T03:20:58;3.95;;;2.70;;
65275;SDS011;51875;49.994;14.052;2023-06-24T03:22:13;4.43;;;2.97;;
65275;SDS011;51875;49.994;14.052;2023-06-24T03:23:29;3.90;;;2.75;;
65275;SDS011;51875;49.994;14.052;2023-06-24T03:24:45;4.47;;;2.90;;
65275;SDS011;51875;49.994;14.052;2023-06-24T03:26:00;3.70;;;2.80;;
65275;SDS011;51875;49.994;14.052;2023-06-24T03:27:15;3.78;;;2.90;;
65275;SDS011;51875;49.994;14.052;2023-06-24T03:28:31;3.65;;;2.90;;
65275;SDS011;51875;49.994;14.052;2023-06-24T03:29:47;5.60;;;2.80;;
65275;SDS011;51875;49.994;14.052;2023-06-24T03:31:02;4.18;;;3.05;;
65275;SDS011;51875;49.994;14.052;2023-06-24T03:32:18;3.90;;;2.70;;
65275;SDS011;51875;49.994;14.052;2023-06-24T03:33:33;5.35;;;3.40;;
65275;SDS011;51875;49.994;14.052;2023-06-24T03:34:49;4.18;;;2.97;;
65275;SDS011;51875;49.994;14.052;2023-06-24T03:36:05;4.72;;;3.05;;
65275;SDS011;51875;49.994;14.052;2023-06-24T03:37:20;5.30;;;3.40;;
65275;SDS011;51875;49.994;14.052;2023-06-24T03:38:36;5.07;;;3.70;;
65275;SDS011;51875;49.994;14.052;2023-06-24T03:39:52;4.15;;;3.30;;
65275;SDS011;51875;49.994;14.052;2023-06-24T03:41:07;3.88;;;2.92;;
65275;SDS011;51875;49.994;14.052;2023-06-24T03:42:22;5.55;;;3.10;;
65275;SDS011;51875;49.994;14.052;2023-06-24T03:43:39;4.45;;;2.95;;
65275;SDS011;51875;49.994;14.052;2023-06-24T03:44:54;3.83;;;2.90;;
65275;SDS011;51875;49.994;14.052;2023-06-24T03:46:10;4.88;;;3.10;;
65275;SDS011;51875;49.994;14.052;2023-06-24T03:47:27;4.03;;;3.10;;
65275;SDS011;51875;49.994;14.052;2023-06-24T03:48:42;4.43;;;3.17;;
65275;SDS011;51875;49.994;14.052;2023-06-24T03:49:58;4.70;;;3.22;;
65275;SDS011;51875;49.994;14.052;2023-06-24T03:51:14;5.05;;;3.47;;
65275;SDS011;51875;49.994;14.052;2023-06-24T03:52:29;5.85;;;3.60;;
65275;SDS011;51875;49.994;14.052;2023-06-24T03:53:44;3.47;;;2.97;;
65275;SDS011;51875;49.994;14.052;2023-06-24T03:55:00;4.22;;;3.35;;
65275;SDS011;51875;49.994;14.052;2023-06-24T03:56:18;3.67;;;3.10;;
65275;SDS011;51875;49.994;14.052;2023-06-24T03:57:33;4.90;;;3.28;;
65275;SDS011;51875;49.994;14.052;2023-06-24T03:58:49;4.65;;;3.30;;
65275;SDS011;51875;49.994;14.052;2023-06-24T04:00:08;5.00;;;3.42;;
65275;SDS011;51875;49.994;14.052;2023-06-24T04:01:31;4.43;;;3.40;;
65275;SDS011;51875;49.994;14.052;2023-06-24T04:02:47;5.63;;;3.22;;
65275;SDS011;51875;49.994;14.052;2023-06-24T04:04:03;5.20;;;3.28;;
65275;SDS011;51875;49.994;14.052;2023-06-24T04:05:19;4.88;;;3.58;;
65275;SDS011;51875;49.994;14.052;2023-06-24T04:06:35;5.22;;;3.55;;
65275;SDS011;51875;49.994;14.052;2023-06-24T04:07:51;5.47;;;3.45;;
65275;SDS011;51875;49.994;14.052;2023-06-24T04:09:07;4.60;;;3.55;;
65275;SDS011;51875;49.994;14.052;2023-06-24T04:10:25;4.50;;;3.45;;
65275;SDS011;51875;49.994;14.052;2023-06-24T04:11:40;6.15;;;3.35;;
65275;SDS011;51875;49.994;14.052;2023-06-24T04:12:56;5.18;;;3.65;;
65275;SDS011;51875;49.994;14.052;2023-06-24T04:14:12;4.78;;;3.25;;
65275;SDS011;51875;49.994;14.052;2023-06-24T04:15:27;5.78;;;3.78;;
65275;SDS011;51875;49.994;14.052;2023-06-24T04:16:43;6.60;;;3.60;;
65275;SDS011;51875;49.994;14.052;2023-06-24T04:17:58;5.28;;;3.72;;
65275;SDS011;51875;49.994;14.052;2023-06-24T04:19:14;5.00;;;3.40;;
65275;SDS011;51875;49.994;14.052;2023-06-24T04:20:29;7.70;;;3.88;;
65275;SDS011;51875;49.994;14.052;2023-06-24T04:21:45;4.97;;;3.90;;
65275;SDS011;51875;49.994;14.052;2023-06-24T04:23:00;6.65;;;3.83;;
65275;SDS011;51875;49.994;14.052;2023-06-24T04:24:16;5.50;;;4.10;;
65275;SDS011;51875;49.994;14.052;2023-06-24T04:25:32;6.13;;;3.72;;
65275;SDS011;51875;49.994;14.052;2023-06-24T04:26:47;5.07;;;3.55;;
65275;SDS011;51875;49.994;14.052;2023-06-24T04:28:03;5.85;;;3.60;;
65275;SDS011;51875;49.994;14.052;2023-06-24T04:29:19;5.00;;;3.83;;
65275;SDS011;51875;49.994;14.052;2023-06-24T04:30:35;6.60;;;3.90;;
65275;SDS011;51875;49.994;14.052;2023-06-24T04:31:51;4.70;;;3.83;;
65275;SDS011;51875;49.994;14.052;2023-06-24T04:33:06;6.68;;;4.30;;
65275;SDS011;51875;49.994;14.052;2023-06-24T04:34:22;6.00;;;4.03;;
65275;SDS011;51875;49.994;14.052;2023-06-24T04:35:37;6.13;;;4.18;;
65275;SDS011;51875;49.994;14.052;2023-06-24T04:36:53;6.03;;;4.05;;
65275;SDS011;51875;49.994;14.052;2023-06-24T04:38:09;7.63;;;4.47;;
65275;SDS011;51875;49.994;14.052;2023-06-24T04:39:28;7.57;;;4.25;;
65275;SDS011;51875;49.994;14.052;2023-06-24T04:40:44;5.50;;;3.92;;
65275;SDS011;51875;49.994;14.052;2023-06-24T04:42:00;6.35;;;4.60;;
65275;SDS011;51875;49.994;14.052;2023-06-24T04:43:15;5.28;;;4.03;;
65275;SDS011;51875;49.994;14.052;2023-06-24T04:44:31;5.50;;;4.32;;
65275;SDS011;51875;49.994;14.052;2023-06-24T04:45:47;5.68;;;4.20;;
65275;SDS011;51875;49.994;14.052;2023-06-24T04:47:02;6.22;;;4.15;;
65275;SDS011;51875;49.994;14.052;2023-06-24T04:48:18;6.05;;;4.35;;
65275;SDS011;51875;49.994;14.052;2023-06-24T04:49:34;6.18;;;4.00;;
65275;SDS011;51875;49.994;14.052;2023-06-24T04:50:49;6.10;;;4.13;;
65275;SDS011;51875;49.994;14.052;2023-06-24T04:52:05;7.38;;;4.18;;
65275;SDS011;51875;49.994;14.052;2023-06-24T04:53:21;6.32;;;3.90;;
65275;SDS011;51875;49.994;14.052;2023-06-24T04:54:37;6.15;;;3.90;;
65275;SDS011;51875;49.994;14.052;2023-06-24T04:55:52;6.47;;;4.45;;
65275;SDS011;51875;49.994;14.052;2023-06-24T04:57:09;6.60;;;4.20;;
65275;SDS011;51875;49.994;14.052;2023-06-24T04:58:37;5.53;;;4.40;;
65275;SDS011;51875;49.994;14.052;2023-06-24T04:59:53;7.60;;;4.35;;
65275;SDS011;51875;49.994;14.052;2023-06-24T05:01:09;5.93;;;4.45;;
65275;SDS011;51875;49.994;14.052;2023-06-24T05:02:24;7.47;;;5.00;;
65275;SDS011;51875;49.994;14.052;2023-06-24T05:03:40;6.70;;;4.40;;
65275;SDS011;51875;49.994;14.052;2023-06-24T05:04:56;6.53;;;4.32;;
65275;SDS011;51875;49.994;14.052;2023-06-24T05:06:11;6.22;;;4.53;;
65275;SDS011;51875;49.994;14.052;2023-06-24T05:07:27;5.82;;;4.78;;
65275;SDS011;51875;49.994;14.052;2023-06-24T05:08:43;6.85;;;4.85;;
65275;SDS011;51875;49.994;14.052;2023-06-24T05:09:59;6.68;;;4.68;;
65275;SDS011;51875;49.994;14.052;2023-06-24T05:11:14;7.43;;;5.18;;
65275;SDS011;51875;49.994;14.052;2023-06-24T05:12:30;6.85;;;4.85;;
65275;SDS011;51875;49.994;14.052;2023-06-24T05:13:45;6.32;;;5.15;;
65275;SDS011;51875;49.994;14.052;2023-06-24T05:15:01;7.40;;;5.20;;
65275;SDS011;51875;49.994;14.052;2023-06-24T05:16:17;7.03;;;4.97;;
65275;SDS011;51875;49.994;14.052;2023-06-24T05:17:33;8.48;;;5.07;;
65275;SDS011;51875;49.994;14.052;2023-06-24T05:18:48;7.10;;;5.40;;
65275;SDS011;51875;49.994;14.052;2023-06-24T05:20:04;8.13;;;5.50;;
65275;SDS011;51875;49.994;14.052;2023-06-24T05:21:20;7.65;;;5.55;;
65275;SDS011;51875;49.994;14.052;2023-06-24T05:22:35;7.07;;;5.22;;
65275;SDS011;51875;49.994;14.052;2023-06-24T05:23:52;6.18;;;4.60;;
65275;SDS011;51875;49.994;14.052;2023-06-24T05:25:07;6.93;;;4.30;;
65275;SDS011;51875;49.994;14.052;2023-06-24T05:26:23;7.93;;;4.55;;
65275;SDS011;51875;49.994;14.052;2023-06-24T05:27:39;5.82;;;4.88;;
65275;SDS011;51875;49.994;14.052;2023-06-24T05:28:59;7.25;;;5.03;;
65275;SDS011;51875;49.994;14.052;2023-06-24T05:30:14;6.45;;;5.03;;
65275;SDS011;51875;49.994;14.052;2023-06-24T05:31:30;8.30;;;5.32;;
65275;SDS011;51875;49.994;14.052;2023-06-24T05:32:46;7.05;;;4.90;;
65275;SDS011;51875;49.994;14.052;2023-06-24T05:34:01;6.35;;;5.20;;
65275;SDS011;51875;49.994;14.052;2023-06-24T05:35:17;6.80;;;5.18;;
65275;SDS011;51875;49.994;14.052;2023-06-24T05:36:33;6.40;;;5.00;;
65275;SDS011;51875;49.994;14.052;2023-06-24T05:37:48;5.88;;;4.90;;
65275;SDS011;51875;49.994;14.052;2023-06-24T05:39:04;7.15;;;5.20;;
65275;SDS011;51875;49.994;14.052;2023-06-24T05:40:23;6.47;;;4.80;;
65275;SDS011;51875;49.994;14.052;2023-06-24T05:41:38;6.00;;;5.25;;
65275;SDS011;51875;49.994;14.052;2023-06-24T05:42:54;7.10;;;5.88;;
65275;SDS011;51875;49.994;14.052;2023-06-24T05:44:10;8.20;;;5.30;;
65275;SDS011;51875;49.994;14.052;2023-06-24T05:45:26;5.68;;;4.20;;
65275;SDS011;51875;49.994;14.052;2023-06-24T05:46:42;9.02;;;5.35;;
65275;SDS011;51875;49.994;14.052;2023-06-24T05:47:57;6.60;;;4.68;;
65275;SDS011;51875;49.994;14.052;2023-06-24T05:49:13;8.48;;;5.43;;
65275;SDS011;51875;49.994;14.052;2023-06-24T05:50:28;8.32;;;4.97;;
65275;SDS011;51875;49.994;14.052;2023-06-24T05:51:44;9.90;;;5.53;;
65275;SDS011;51875;49.994;14.052;2023-06-24T05:52:59;6.30;;;4.97;;
65275;SDS011;51875;49.994;14.052;2023-06-24T05:54:15;6.00;;;4.95;;
65275;SDS011;51875;49.994;14.052;2023-06-24T05:55:30;7.28;;;5.35;;
65275;SDS011;51875;49.994;14.052;2023-06-24T05:56:46;6.85;;;5.40;;
65275;SDS011;51875;49.994;14.052;2023-06-24T05:58:02;7.13;;;5.53;;
65275;SDS011;51875;49.994;14.052;2023-06-24T05:59:17;7.55;;;5.55;;
65275;SDS011;51875;49.994;14.052;2023-06-24T06:00:33;7.70;;;5.82;;
65275;SDS011;51875;49.994;14.052;2023-06-24T06:01:48;9.05;;;5.60;;
65275;SDS011;51875;49.994;14.052;2023-06-24T06:03:04;8.30;;;5.88;;
65275;SDS011;51875;49.994;14.052;2023-06-24T06:04:20;9.32;;;6.00;;
65275;SDS011;51875;49.994;14.052;2023-06-24T06:05:36;8.25;;;5.88;;
65275;SDS011;51875;49.994;14.052;2023-06-24T06:06:51;9.50;;;6.28;;
65275;SDS011;51875;49.994;14.052;2023-06-24T06:08:07;9.02;;;6.20;;
65275;SDS011;51875;49.994;14.052;2023-06-24T06:09:23;8.18;;;6.38;;
65275;SDS011;51875;49.994;14.052;2023-06-24T06:10:38;8.23;;;6.40;;
65275;SDS011;51875;49.994;14.052;2023-06-24T06:11:53;8.82;;;6.55;;
65275;SDS011;51875;49.994;14.052;2023-06-24T06:13:09;7.13;;;5.95;;
65275;SDS011;51875;49.994;14.052;2023-06-24T06:14:25;8.98;;;6.60;;
65275;SDS011;51875;49.994;14.052;2023-06-24T06:15:40;9.82;;;6.97;;
65275;SDS011;51875;49.994;14.052;2023-06-24T06:16:56;8.27;;;6.72;;
65275;SDS011;51875;49.994;14.052;2023-06-24T06:18:11;10.20;;;6.15;;
65275;SDS011;51875;49.994;14.052;2023-06-24T06:19:27;7.55;;;6.32;;
65275;SDS011;51875;49.994;14.052;2023-06-24T06:20:43;9.05;;;6.47;;
65275;SDS011;51875;49.994;14.052;2023-06-24T06:21:59;8.93;;;6.88;;
65275;SDS011;51875;49.994;14.052;2023-06-24T06:23:15;8.15;;;6.35;;
65275;SDS011;51875;49.994;14.052;2023-06-24T06:24:31;9.05;;;7.47;;
65275;SDS011;51875;49.994;14.052;2023-06-24T06:25:47;7.25;;;5.68;;
65275;SDS011;51875;49.994;14.052;2023-06-24T06:27:02;9.73;;;6.55;;
65275;SDS011;51875;49.994;14.052;2023-06-24T06:28:18;8.70;;;6.60;;
65275;SDS011;51875;49.994;14.052;2023-06-24T06:29:33;8.82;;;6.43;;
65275;SDS011;51875;49.994;14.052;2023-06-24T06:30:50;9.65;;;6.60;;
65275;SDS011;51875;49.994;14.052;2023-06-24T06:32:06;8.60;;;6.45;;
65275;SDS011;51875;49.994;14.052;2023-06-24T06:33:22;9.73;;;6.90;;
65275;SDS011;51875;49.994;14.052;2023-06-24T06:34:38;8.88;;;6.55;;
65275;SDS011;51875;49.994;14.052;2023-06-24T06:35:54;10.02;;;6.47;;
65275;SDS011;51875;49.994;14.052;2023-06-24T06:37:09;10.20;;;7.40;;
65275;SDS011;51875;49.994;14.052;2023-06-24T06:38:24;10.07;;;7.55;;
65275;SDS011;51875;49.994;14.052;2023-06-24T06:39:40;8.95;;;7.20;;
65275;SDS011;51875;49.994;14.052;2023-06-24T06:40:56;8.90;;;7.00;;
65275;SDS011;51875;49.994;14.052;2023-06-24T06:42:11;9.18;;;6.05;;
65275;SDS011;51875;49.994;14.052;2023-06-24T06:43:27;9.75;;;6.82;;
65275;SDS011;51875;49.994;14.052;2023-06-24T06:44:42;8.80;;;6.65;;
65275;SDS011;51875;49.994;14.052;2023-06-24T06:45:58;9.38;;;7.03;;
65275;SDS011;51875;49.994;14.052;2023-06-24T06:47:14;9.63;;;6.88;;
65275;SDS011;51875;49.994;14.052;2023-06-24T06:48:29;9.73;;;7.25;;
65275;SDS011;51875;49.994;14.052;2023-06-24T06:49:45;9.90;;;7.53;;
65275;SDS011;51875;49.994;14.052;2023-06-24T06:51:01;9.32;;;7.10;;
65275;SDS011;51875;49.994;14.052;2023-06-24T06:52:16;8.93;;;7.00;;
65275;SDS011;51875;49.994;14.052;2023-06-24T06:53:32;8.85;;;6.82;;
65275;SDS011;51875;49.994;14.052;2023-06-24T06:54:48;9.90;;;7.57;;
65275;SDS011;51875;49.994;14.052;2023-06-24T06:56:03;10.23;;;6.78;;
65275;SDS011;51875;49.994;14.052;2023-06-24T06:57:19;8.60;;;6.13;;
65275;SDS011;51875;49.994;14.052;2023-06-24T06:58:34;9.07;;;7.13;;
65275;SDS011;51875;49.994;14.052;2023-06-24T06:59:50;7.70;;;6.40;;
65275;SDS011;51875;49.994;14.052;2023-06-24T07:01:06;8.10;;;6.45;;
65275;SDS011;51875;49.994;14.052;2023-06-24T07:02:21;10.98;;;7.43;;
65275;SDS011;51875;49.994;14.052;2023-06-24T07:03:37;8.95;;;6.95;;
65275;SDS011;51875;49.994;14.052;2023-06-24T07:04:52;11.55;;;7.50;;
65275;SDS011;51875;49.994;14.052;2023-06-24T07:06:09;11.63;;;7.72;;
65275;SDS011;51875;49.994;14.052;2023-06-24T07:07:25;9.82;;;7.30;;
65275;SDS011;51875;49.994;14.052;2023-06-24T07:08:40;10.05;;;7.07;;
65275;SDS011;51875;49.994;14.052;2023-06-24T07:09:56;10.93;;;7.63;;
65275;SDS011;51875;49.994;14.052;2023-06-24T07:11:11;9.57;;;7.50;;
65275;SDS011;51875;49.994;14.052;2023-06-24T07:12:30;7.88;;;5.20;;
65275;SDS011;51875;49.994;14.052;2023-06-24T07:13:48;10.88;;;8.07;;
65275;SDS011;51875;49.994;14.052;2023-06-24T07:15:06;10.23;;;7.35;;
65275;SDS011;51875;49.994;14.052;2023-06-24T07:16:22;10.82;;;7.07;;
65275;SDS011;51875;49.994;14.052;2023-06-24T07:17:37;10.98;;;8.23;;
65275;SDS011;51875;49.994;14.052;2023-06-24T07:18:53;10.10;;;8.27;;
65275;SDS011;51875;49.994;14.052;2023-06-24T07:20:09;9.48;;;7.50;;
65275;SDS011;51875;49.994;14.052;2023-06-24T07:21:25;11.63;;;9.00;;
65275;SDS011;51875;49.994;14.052;2023-06-24T07:22:40;11.45;;;8.80;;
65275;SDS011;51875;49.994;14.052;2023-06-24T07:23:56;12.07;;;6.90;;
65275;SDS011;51875;49.994;14.052;2023-06-24T07:25:11;10.77;;;8.50;;
65275;SDS011;51875;49.994;14.052;2023-06-24T07:26:27;7.15;;;5.47;;
65275;SDS011;51875;49.994;14.052;2023-06-24T07:27:43;10.93;;;7.72;;
65275;SDS011;51875;49.994;14.052;2023-06-24T07:28:59;11.52;;;9.20;;
65275;SDS011;51875;49.994;14.052;2023-06-24T07:30:15;10.35;;;7.32;;
65275;SDS011;51875;49.994;14.052;2023-06-24T07:31:31;12.25;;;9.10;;
65275;SDS011;51875;49.994;14.052;2023-06-24T07:32:50;9.88;;;7.55;;
65275;SDS011;51875;49.994;14.052;2023-06-24T07:34:05;14.20;;;9.88;;
65275;SDS011;51875;49.994;14.052;2023-06-24T07:35:21;14.30;;;9.48;;
65275;SDS011;51875;49.994;14.052;2023-06-24T07:36:37;13.93;;;10.35;;
65275;SDS011;51875;49.994;14.052;2023-06-24T07:37:52;11.45;;;9.00;;
65275;SDS011;51875;49.994;14.052;2023-06-24T07:39:08;11.68;;;8.35;;
65275;SDS011;51875;49.994;14.052;2023-06-24T07:40:24;11.52;;;8.20;;
65275;SDS011;51875;49.994;14.052;2023-06-24T07:41:42;11.60;;;9.48;;
65275;SDS011;51875;49.994;14.052;2023-06-24T07:42:58;12.52;;;9.38;;
65275;SDS011;51875;49.994;14.052;2023-06-24T07:44:13;10.50;;;8.30;;
65275;SDS011;51875;49.994;14.052;2023-06-24T07:45:29;12.38;;;9.23;;
65275;SDS011;51875;49.994;14.052;2023-06-24T07:46:45;14.50;;;10.32;;
65275;SDS011;51875;49.994;14.052;2023-06-24T07:48:05;14.00;;;9.60;;
65275;SDS011;51875;49.994;14.052;2023-06-24T07:49:22;12.27;;;7.75;;